sensor_id;sensor_type;location;lat;lon;timestamp;P1;durP1;ratioP1;P2;durP2;ratioP2
62633;SDS011;48704;50.534;6.442;2023-08-20T00:00:43;5.97;;;3.90;;
62633;SDS011;48704;50.534;6.442;2023-08-20T00:03:10;7.00;;;4.15;;
62633;SDS011;48704;50.534;6.442;2023-08-20T00:05:37;7.30;;;4.30;;
62633;SDS011;48704;50.534;6.442;2023-08-20T00:08:03;6.60;;;4.10;;
62633;SDS011;48704;50.534;6.442;2023-08-20T00:10:29;7.43;;;3.92;;
62633;SDS011;48704;50.534;6.442;2023-08-20T00:12:54;7.55;;;4.78;;
62633;SDS011;48704;50.534;6.442;2023-08-20T00:15:20;5.22;;;3.42;;
62633;SDS011;48704;50.534;6.442;2023-08-20T00:17:47;7.13;;;3.85;;
62633;SDS011;48704;50.534;6.442;2023-08-20T00:20:13;7.57;;;4.13;;
62633;SDS011;48704;50.534;6.442;2023-08-20T00:22:39;7.13;;;4.18;;
62633;SDS011;48704;50.534;6.442;2023-08-20T00:25:05;6.90;;;3.97;;
62633;SDS011;48704;50.534;6.442;2023-08-20T00:27:31;7.55;;;4.38;;
62633;SDS011;48704;50.534;6.442;2023-08-20T00:29:57;7.47;;;4.07;;
62633;SDS011;48704;50.534;6.442;2023-08-20T00:32:23;5.88;;;4.22;;
62633;SDS011;48704;50.534;6.442;2023-08-20T00:34:48;7.60;;;4.90;;
62633;SDS011;48704;50.534;6.442;2023-08-20T00:37:13;7.63;;;4.43;;
62633;SDS011;48704;50.534;6.442;2023-08-20T00:39:39;11.07;;;5.50;;
62633;SDS011;48704;50.534;6.442;2023-08-20T00:42:04;8.50;;;4.55;;
62633;SDS011;48704;50.534;6.442;2023-08-20T00:44:30;9.13;;;4.80;;
62633;SDS011;48704;50.534;6.442;2023-08-20T00:46:55;8.60;;;4.55;;
62633;SDS011;48704;50.534;6.442;2023-08-20T00:49:21;6.80;;;4.53;;
62633;SDS011;48704;50.534;6.442;2023-08-20T00:51:47;6.40;;;4.25;;
62633;SDS011;48704;50.534;6.442;2023-08-20T00:54:14;6.60;;;4.47;;
62633;SDS011;48704;50.534;6.442;2023-08-20T00:56:39;5.78;;;3.80;;
62633;SDS011;48704;50.534;6.442;2023-08-20T00:59:05;7.40;;;3.97;;
62633;SDS011;48704;50.534;6.442;2023-08-20T01:01:31;6.18;;;4.05;;
62633;SDS011;48704;50.534;6.442;2023-08-20T01:03:56;6.32;;;3.95;;
62633;SDS011;48704;50.534;6.442;2023-08-20T01:09:25;6.50;;;3.25;;
62633;SDS011;48704;50.534;6.442;2023-08-20T01:11:55;5.47;;;2.80;;
62633;SDS011;48704;50.534;6.442;2023-08-20T01:14:24;6.68;;;3.05;;
62633;SDS011;48704;50.534;6.442;2023-08-20T01:16:49;6.13;;;2.67;;
62633;SDS011;48704;50.534;6.442;2023-08-20T01:19:18;6.30;;;3.80;;
62633;SDS011;48704;50.534;6.442;2023-08-20T01:24:44;6.85;;;3.22;;
62633;SDS011;48704;50.534;6.442;2023-08-20T01:30:15;5.97;;;3.60;;
62633;SDS011;48704;50.534;6.442;2023-08-20T01:32:41;5.28;;;3.15;;
62633;SDS011;48704;50.534;6.442;2023-08-20T01:35:11;6.78;;;3.58;;
62633;SDS011;48704;50.534;6.442;2023-08-20T01:37:38;5.47;;;3.45;;
62633;SDS011;48704;50.534;6.442;2023-08-20T01:40:04;4.88;;;3.08;;
62633;SDS011;48704;50.534;6.442;2023-08-20T01:42:32;5.75;;;3.38;;
62633;SDS011;48704;50.534;6.442;2023-08-20T01:44:57;6.22;;;3.63;;
62633;SDS011;48704;50.534;6.442;2023-08-20T01:47:22;5.63;;;3.10;;
62633;SDS011;48704;50.534;6.442;2023-08-20T01:49:47;7.07;;;3.63;;
62633;SDS011;48704;50.534;6.442;2023-08-20T01:52:13;8.27;;;3.85;;
62633;SDS011;48704;50.534;6.442;2023-08-20T01:54:38;6.07;;;3.22;;
62633;SDS011;48704;50.534;6.442;2023-08-20T01:57:03;6.53;;;3.97;;
62633;SDS011;48704;50.534;6.442;2023-08-20T01:59:28;7.70;;;4.43;;
62633;SDS011;48704;50.534;6.442;2023-08-20T02:01:54;6.93;;;4.07;;
62633;SDS011;48704;50.534;6.442;2023-08-20T02:04:19;5.80;;;3.50;;
62633;SDS011;48704;50.534;6.442;2023-08-20T02:06:44;7.22;;;3.80;;
62633;SDS011;48704;50.534;6.442;2023-08-20T02:09:09;5.25;;;3.60;;
62633;SDS011;48704;50.534;6.442;2023-08-20T02:11:35;4.65;;;3.17;;
62633;SDS011;48704;50.534;6.442;2023-08-20T02:14:01;6.88;;;3.70;;
62633;SDS011;48704;50.534;6.442;2023-08-20T02:16:27;5.07;;;2.95;;
62633;SDS011;48704;50.534;6.442;2023-08-20T02:18:52;5.95;;;3.80;;
62633;SDS011;48704;50.534;6.442;2023-08-20T02:21:18;5.57;;;4.03;;
62633;SDS011;48704;50.534;6.442;2023-08-20T02:23:43;4.72;;;3.05;;
62633;SDS011;48704;50.534;6.442;2023-08-20T02:26:09;6.47;;;3.70;;
62633;SDS011;48704;50.534;6.442;2023-08-20T02:28:34;5.70;;;3.40;;
62633;SDS011;48704;50.534;6.442;2023-08-20T02:31:03;7.47;;;3.92;;
62633;SDS011;48704;50.534;6.442;2023-08-20T02:33:29;6.70;;;3.92;;
62633;SDS011;48704;50.534;6.442;2023-08-20T02:35:54;5.55;;;4.10;;
62633;SDS011;48704;50.534;6.442;2023-08-20T02:38:20;6.43;;;3.90;;
62633;SDS011;48704;50.534;6.442;2023-08-20T02:40:45;7.10;;;3.95;;
62633;SDS011;48704;50.534;6.442;2023-08-20T02:43:10;5.85;;;3.35;;
62633;SDS011;48704;50.534;6.442;2023-08-20T02:45:39;5.55;;;3.67;;
62633;SDS011;48704;50.534;6.442;2023-08-20T02:48:06;8.82;;;3.40;;
62633;SDS011;48704;50.534;6.442;2023-08-20T02:50:31;5.63;;;3.38;;
62633;SDS011;48704;50.534;6.442;2023-08-20T02:52:56;5.40;;;3.20;;
62633;SDS011;48704;50.534;6.442;2023-08-20T02:55:22;4.95;;;3.10;;
62633;SDS011;48704;50.534;6.442;2023-08-20T02:57:47;6.13;;;3.70;;
62633;SDS011;48704;50.534;6.442;2023-08-20T03:00:12;8.00;;;3.83;;
62633;SDS011;48704;50.534;6.442;2023-08-20T03:02:38;7.28;;;3.80;;
62633;SDS011;48704;50.534;6.442;2023-08-20T03:05:06;6.57;;;3.63;;
62633;SDS011;48704;50.534;6.442;2023-08-20T03:07:33;6.85;;;3.30;;
62633;SDS011;48704;50.534;6.442;2023-08-20T03:09:58;6.15;;;3.75;;
62633;SDS011;48704;50.534;6.442;2023-08-20T03:12:24;4.55;;;3.10;;
62633;SDS011;48704;50.534;6.442;2023-08-20T03:14:49;8.98;;;3.95;;
62633;SDS011;48704;50.534;6.442;2023-08-20T03:17:14;5.57;;;3.00;;
62633;SDS011;48704;50.534;6.442;2023-08-20T03:19:47;5.60;;;3.53;;
62633;SDS011;48704;50.534;6.442;2023-08-20T03:22:20;6.75;;;4.03;;
62633;SDS011;48704;50.534;6.442;2023-08-20T03:24:45;6.40;;;3.60;;
62633;SDS011;48704;50.534;6.442;2023-08-20T03:27:10;6.18;;;3.38;;
62633;SDS011;48704;50.534;6.442;2023-08-20T03:29:36;5.18;;;3.40;;
62633;SDS011;48704;50.534;6.442;2023-08-20T03:32:01;6.05;;;3.25;;
62633;SDS011;48704;50.534;6.442;2023-08-20T03:34:26;6.03;;;3.88;;
62633;SDS011;48704;50.534;6.442;2023-08-20T03:36:51;7.07;;;3.40;;
62633;SDS011;48704;50.534;6.442;2023-08-20T03:39:17;5.35;;;3.60;;
62633;SDS011;48704;50.534;6.442;2023-08-20T03:41:43;5.88;;;3.50;;
62633;SDS011;48704;50.534;6.442;2023-08-20T03:44:08;8.52;;;3.58;;
62633;SDS011;48704;50.534;6.442;2023-08-20T03:46:33;6.07;;;3.65;;
62633;SDS011;48704;50.534;6.442;2023-08-20T03:48:59;5.95;;;3.67;;
62633;SDS011;48704;50.534;6.442;2023-08-20T03:51:24;8.45;;;4.03;;
62633;SDS011;48704;50.534;6.442;2023-08-20T03:53:49;6.53;;;3.97;;
62633;SDS011;48704;50.534;6.442;2023-08-20T03:56:15;6.47;;;4.13;;
62633;SDS011;48704;50.534;6.442;2023-08-20T03:58:40;6.03;;;3.72;;
62633;SDS011;48704;50.534;6.442;2023-08-20T04:01:05;6.25;;;3.33;;
62633;SDS011;48704;50.534;6.442;2023-08-20T04:03:31;4.43;;;3.10;;
62633;SDS011;48704;50.534;6.442;2023-08-20T04:05:57;5.63;;;2.95;;
62633;SDS011;48704;50.534;6.442;2023-08-20T04:08:22;4.97;;;2.92;;
62633;SDS011;48704;50.534;6.442;2023-08-20T04:10:47;5.20;;;2.88;;
62633;SDS011;48704;50.534;6.442;2023-08-20T04:13:12;4.80;;;3.05;;
62633;SDS011;48704;50.534;6.442;2023-08-20T04:15:39;5.18;;;2.65;;
62633;SDS011;48704;50.534;6.442;2023-08-20T04:18:05;4.35;;;2.53;;
62633;SDS011;48704;50.534;6.442;2023-08-20T04:20:31;5.55;;;2.40;;
62633;SDS011;48704;50.534;6.442;2023-08-20T04:22:57;4.57;;;3.00;;
62633;SDS011;48704;50.534;6.442;2023-08-20T04:25:22;5.18;;;3.17;;
62633;SDS011;48704;50.534;6.442;2023-08-20T04:27:47;6.28;;;2.95;;
62633;SDS011;48704;50.534;6.442;2023-08-20T04:30:12;5.00;;;2.70;;
62633;SDS011;48704;50.534;6.442;2023-08-20T04:32:38;4.95;;;2.80;;
62633;SDS011;48704;50.534;6.442;2023-08-20T04:35:03;4.68;;;2.97;;
62633;SDS011;48704;50.534;6.442;2023-08-20T04:37:29;4.30;;;2.88;;
62633;SDS011;48704;50.534;6.442;2023-08-20T04:39:54;3.83;;;2.42;;
62633;SDS011;48704;50.534;6.442;2023-08-20T04:42:19;4.45;;;2.50;;
62633;SDS011;48704;50.534;6.442;2023-08-20T04:44:45;4.82;;;2.60;;
62633;SDS011;48704;50.534;6.442;2023-08-20T04:47:13;4.65;;;2.88;;
62633;SDS011;48704;50.534;6.442;2023-08-20T04:49:39;4.75;;;2.75;;
62633;SDS011;48704;50.534;6.442;2023-08-20T04:52:04;5.55;;;3.40;;
62633;SDS011;48704;50.534;6.442;2023-08-20T04:54:30;6.05;;;3.10;;
62633;SDS011;48704;50.534;6.442;2023-08-20T04:56:55;5.20;;;3.03;;
62633;SDS011;48704;50.534;6.442;2023-08-20T04:59:21;7.30;;;3.90;;
62633;SDS011;48704;50.534;6.442;2023-08-20T05:01:46;6.93;;;3.13;;
62633;SDS011;48704;50.534;6.442;2023-08-20T05:04:11;6.53;;;2.80;;
62633;SDS011;48704;50.534;6.442;2023-08-20T05:06:37;4.45;;;2.95;;
62633;SDS011;48704;50.534;6.442;2023-08-20T05:09:02;4.95;;;2.92;;
62633;SDS011;48704;50.534;6.442;2023-08-20T05:11:28;4.70;;;2.85;;
62633;SDS011;48704;50.534;6.442;2023-08-20T05:13:56;4.15;;;2.55;;
62633;SDS011;48704;50.534;6.442;2023-08-20T05:16:21;3.85;;;2.60;;
62633;SDS011;48704;50.534;6.442;2023-08-20T05:18:47;4.53;;;2.80;;
62633;SDS011;48704;50.534;6.442;2023-08-20T05:21:12;5.10;;;2.90;;
62633;SDS011;48704;50.534;6.442;2023-08-20T05:23:38;5.85;;;2.95;;
62633;SDS011;48704;50.534;6.442;2023-08-20T05:26:05;4.95;;;3.00;;
62633;SDS011;48704;50.534;6.442;2023-08-20T05:28:31;5.25;;;3.03;;
62633;SDS011;48704;50.534;6.442;2023-08-20T05:30:56;5.47;;;3.03;;
62633;SDS011;48704;50.534;6.442;2023-08-20T05:33:22;4.28;;;2.60;;
62633;SDS011;48704;50.534;6.442;2023-08-20T05:35:48;4.97;;;2.53;;
62633;SDS011;48704;50.534;6.442;2023-08-20T05:38:14;3.95;;;2.42;;
62633;SDS011;48704;50.534;6.442;2023-08-20T05:40:39;7.47;;;3.10;;
62633;SDS011;48704;50.534;6.442;2023-08-20T05:43:04;4.20;;;2.60;;
62633;SDS011;48704;50.534;6.442;2023-08-20T05:45:30;6.13;;;3.22;;
62633;SDS011;48704;50.534;6.442;2023-08-20T05:47:55;5.75;;;2.70;;
62633;SDS011;48704;50.534;6.442;2023-08-20T05:50:20;4.22;;;3.00;;
62633;SDS011;48704;50.534;6.442;2023-08-20T05:52:45;5.57;;;3.17;;
62633;SDS011;48704;50.534;6.442;2023-08-20T05:55:11;8.95;;;3.85;;
62633;SDS011;48704;50.534;6.442;2023-08-20T05:57:36;4.63;;;3.15;;
62633;SDS011;48704;50.534;6.442;2023-08-20T06:00:03;6.07;;;3.22;;
62633;SDS011;48704;50.534;6.442;2023-08-20T06:02:29;7.97;;;3.05;;
62633;SDS011;48704;50.534;6.442;2023-08-20T06:04:55;5.07;;;3.47;;
62633;SDS011;48704;50.534;6.442;2023-08-20T06:07:20;4.70;;;3.20;;
62633;SDS011;48704;50.534;6.442;2023-08-20T06:09:46;7.38;;;3.47;;
62633;SDS011;48704;50.534;6.442;2023-08-20T06:12:11;8.95;;;3.40;;
62633;SDS011;48704;50.534;6.442;2023-08-20T06:14:36;6.65;;;3.38;;
62633;SDS011;48704;50.534;6.442;2023-08-20T06:17:01;4.90;;;3.10;;
62633;SDS011;48704;50.534;6.442;2023-08-20T06:19:27;8.20;;;3.85;;
62633;SDS011;48704;50.534;6.442;2023-08-20T06:21:54;6.57;;;3.50;;
62633;SDS011;48704;50.534;6.442;2023-08-20T06:24:19;6.57;;;3.42;;
62633;SDS011;48704;50.534;6.442;2023-08-20T06:26:44;7.75;;;4.25;;
62633;SDS011;48704;50.534;6.442;2023-08-20T06:29:10;5.78;;;3.75;;
62633;SDS011;48704;50.534;6.442;2023-08-20T06:31:35;10.43;;;4.50;;
62633;SDS011;48704;50.534;6.442;2023-08-20T06:34:01;8.40;;;4.10;;
62633;SDS011;48704;50.534;6.442;2023-08-20T06:36:26;6.20;;;3.45;;
62633;SDS011;48704;50.534;6.442;2023-08-20T06:38:51;7.32;;;3.60;;
62633;SDS011;48704;50.534;6.442;2023-08-20T06:41:17;7.75;;;4.32;;
62633;SDS011;48704;50.534;6.442;2023-08-20T06:43:43;7.80;;;4.03;;
62633;SDS011;48704;50.534;6.442;2023-08-20T06:46:08;6.55;;;3.75;;
62633;SDS011;48704;50.534;6.442;2023-08-20T06:48:34;7.63;;;4.10;;
62633;SDS011;48704;50.534;6.442;2023-08-20T06:51:07;6.20;;;4.05;;
62633;SDS011;48704;50.534;6.442;2023-08-20T06:53:36;7.00;;;4.03;;
62633;SDS011;48704;50.534;6.442;2023-08-20T06:56:02;7.10;;;3.88;;
62633;SDS011;48704;50.534;6.442;2023-08-20T06:58:27;7.75;;;4.55;;
62633;SDS011;48704;50.534;6.442;2023-08-20T07:00:52;12.27;;;4.75;;
62633;SDS011;48704;50.534;6.442;2023-08-20T07:03:18;5.35;;;3.30;;
62633;SDS011;48704;50.534;6.442;2023-08-20T07:05:43;8.05;;;4.57;;
62633;SDS011;48704;50.534;6.442;2023-08-20T07:08:10;7.85;;;4.10;;
62633;SDS011;48704;50.534;6.442;2023-08-20T07:10:35;8.23;;;4.18;;
62633;SDS011;48704;50.534;6.442;2023-08-20T07:13:00;7.63;;;4.22;;
62633;SDS011;48704;50.534;6.442;2023-08-20T07:15:25;7.55;;;4.05;;
62633;SDS011;48704;50.534;6.442;2023-08-20T07:17:51;6.43;;;4.13;;
62633;SDS011;48704;50.534;6.442;2023-08-20T07:20:16;7.63;;;4.20;;
62633;SDS011;48704;50.534;6.442;2023-08-20T07:22:41;5.90;;;3.60;;
62633;SDS011;48704;50.534;6.442;2023-08-20T07:25:07;5.97;;;3.58;;
62633;SDS011;48704;50.534;6.442;2023-08-20T07:27:33;5.38;;;3.30;;
62633;SDS011;48704;50.534;6.442;2023-08-20T07:29:58;7.55;;;4.00;;
62633;SDS011;48704;50.534;6.442;2023-08-20T07:32:24;7.40;;;4.10;;
62633;SDS011;48704;50.534;6.442;2023-08-20T07:34:49;7.22;;;3.92;;
62633;SDS011;48704;50.534;6.442;2023-08-20T07:37:15;6.07;;;3.72;;
62633;SDS011;48704;50.534;6.442;2023-08-20T07:39:40;9.77;;;5.00;;
62633;SDS011;48704;50.534;6.442;2023-08-20T07:42:05;8.35;;;5.15;;
62633;SDS011;48704;50.534;6.442;2023-08-20T07:44:31;6.22;;;4.05;;
62633;SDS011;48704;50.534;6.442;2023-08-20T07:46:56;7.63;;;4.88;;
62633;SDS011;48704;50.534;6.442;2023-08-20T07:49:22;13.55;;;5.50;;
62633;SDS011;48704;50.534;6.442;2023-08-20T07:51:47;7.30;;;4.93;;
62633;SDS011;48704;50.534;6.442;2023-08-20T07:54:13;9.05;;;5.88;;
62633;SDS011;48704;50.534;6.442;2023-08-20T07:56:39;9.82;;;5.28;;
62633;SDS011;48704;50.534;6.442;2023-08-20T07:59:04;6.28;;;4.28;;
62633;SDS011;48704;50.534;6.442;2023-08-20T08:01:30;7.60;;;4.47;;
62633;SDS011;48704;50.534;6.442;2023-08-20T08:03:55;10.00;;;7.20;;
62633;SDS011;48704;50.534;6.442;2023-08-20T08:06:20;8.10;;;4.55;;
62633;SDS011;48704;50.534;6.442;2023-08-20T08:08:48;10.95;;;5.75;;
62633;SDS011;48704;50.534;6.442;2023-08-20T08:11:13;7.55;;;4.43;;
62633;SDS011;48704;50.534;6.442;2023-08-20T08:13:38;8.05;;;5.00;;
62633;SDS011;48704;50.534;6.442;2023-08-20T08:16:04;8.77;;;5.45;;
62633;SDS011;48704;50.534;6.442;2023-08-20T08:18:29;7.90;;;4.90;;
62633;SDS011;48704;50.534;6.442;2023-08-20T08:20:54;6.68;;;4.75;;
62633;SDS011;48704;50.534;6.442;2023-08-20T08:23:19;9.45;;;5.93;;
62633;SDS011;48704;50.534;6.442;2023-08-20T08:25:45;10.50;;;5.10;;
62633;SDS011;48704;50.534;6.442;2023-08-20T08:28:10;10.35;;;5.72;;
62633;SDS011;48704;50.534;6.442;2023-08-20T08:30:36;11.57;;;6.05;;
62633;SDS011;48704;50.534;6.442;2023-08-20T08:33:02;8.18;;;5.72;;
62633;SDS011;48704;50.534;6.442;2023-08-20T08:35:28;7.43;;;4.80;;
62633;SDS011;48704;50.534;6.442;2023-08-20T08:37:54;10.23;;;6.65;;
62633;SDS011;48704;50.534;6.442;2023-08-20T08:40:19;11.25;;;7.43;;
62633;SDS011;48704;50.534;6.442;2023-08-20T08:42:48;11.73;;;6.65;;
62633;SDS011;48704;50.534;6.442;2023-08-20T08:45:19;9.85;;;6.53;;
62633;SDS011;48704;50.534;6.442;2023-08-20T08:47:46;10.70;;;6.35;;
62633;SDS011;48704;50.534;6.442;2023-08-20T08:50:12;11.07;;;6.13;;
62633;SDS011;48704;50.534;6.442;2023-08-20T08:52:39;8.70;;;6.22;;
62633;SDS011;48704;50.534;6.442;2023-08-20T08:55:06;8.35;;;5.90;;
62633;SDS011;48704;50.534;6.442;2023-08-20T08:57:33;7.57;;;5.70;;
62633;SDS011;48704;50.534;6.442;2023-08-20T09:00:00;9.73;;;6.28;;
62633;SDS011;48704;50.534;6.442;2023-08-20T09:02:25;10.13;;;6.65;;
62633;SDS011;48704;50.534;6.442;2023-08-20T09:04:50;12.82;;;6.32;;
62633;SDS011;48704;50.534;6.442;2023-08-20T09:07:17;8.57;;;5.65;;
62633;SDS011;48704;50.534;6.442;2023-08-20T09:09:43;9.40;;;6.18;;
62633;SDS011;48704;50.534;6.442;2023-08-20T09:12:13;7.47;;;5.53;;
62633;SDS011;48704;50.534;6.442;2023-08-20T09:14:51;7.07;;;4.72;;
62633;SDS011;48704;50.534;6.442;2023-08-20T09:17:17;9.50;;;4.90;;
62633;SDS011;48704;50.534;6.442;2023-08-20T09:19:44;9.63;;;5.20;;
62633;SDS011;48704;50.534;6.442;2023-08-20T09:22:14;6.40;;;4.35;;
62633;SDS011;48704;50.534;6.442;2023-08-20T09:24:46;6.70;;;4.88;;
62633;SDS011;48704;50.534;6.442;2023-08-20T09:27:17;9.15;;;4.78;;
62633;SDS011;48704;50.534;6.442;2023-08-20T09:29:46;8.60;;;4.93;;
62633;SDS011;48704;50.534;6.442;2023-08-20T09:32:13;8.18;;;4.63;;
62633;SDS011;48704;50.534;6.442;2023-08-20T09:34:40;7.57;;;4.43;;
62633;SDS011;48704;50.534;6.442;2023-08-20T09:37:09;6.10;;;4.15;;
62633;SDS011;48704;50.534;6.442;2023-08-20T09:39:35;6.28;;;4.28;;
62633;SDS011;48704;50.534;6.442;2023-08-20T09:42:01;10.82;;;5.13;;
62633;SDS011;48704;50.534;6.442;2023-08-20T09:44:28;11.20;;;7.50;;
62633;SDS011;48704;50.534;6.442;2023-08-20T09:46:59;8.65;;;5.15;;
62633;SDS011;48704;50.534;6.442;2023-08-20T09:49:25;7.20;;;4.75;;
62633;SDS011;48704;50.534;6.442;2023-08-20T09:51:54;6.30;;;4.85;;
62633;SDS011;48704;50.534;6.442;2023-08-20T09:54:30;8.77;;;5.10;;
62633;SDS011;48704;50.534;6.442;2023-08-20T09:57:02;8.05;;;4.85;;
62633;SDS011;48704;50.534;6.442;2023-08-20T09:59:35;9.38;;;4.40;;
62633;SDS011;48704;50.534;6.442;2023-08-20T10:02:02;6.35;;;4.40;;
62633;SDS011;48704;50.534;6.442;2023-08-20T10:04:28;6.95;;;4.50;;
62633;SDS011;48704;50.534;6.442;2023-08-20T10:06:54;6.00;;;4.68;;
62633;SDS011;48704;50.534;6.442;2023-08-20T10:09:20;7.75;;;4.53;;
62633;SDS011;48704;50.534;6.442;2023-08-20T10:11:47;8.85;;;5.68;;
62633;SDS011;48704;50.534;6.442;2023-08-20T10:14:12;6.30;;;4.93;;
62633;SDS011;48704;50.534;6.442;2023-08-20T10:16:38;5.75;;;4.40;;
62633;SDS011;48704;50.534;6.442;2023-08-20T10:19:05;6.55;;;4.38;;
62633;SDS011;48704;50.534;6.442;2023-08-20T10:21:31;5.35;;;4.22;;
62633;SDS011;48704;50.534;6.442;2023-08-20T10:23:57;8.55;;;4.32;;
62633;SDS011;48704;50.534;6.442;2023-08-20T10:26:28;6.10;;;4.05;;
62633;SDS011;48704;50.534;6.442;2023-08-20T10:29:26;7.65;;;3.78;;
62633;SDS011;48704;50.534;6.442;2023-08-20T10:31:57;6.60;;;3.85;;
62633;SDS011;48704;50.534;6.442;2023-08-20T10:34:35;6.97;;;4.15;;
62633;SDS011;48704;50.534;6.442;2023-08-20T10:37:08;7.00;;;3.78;;
62633;SDS011;48704;50.534;6.442;2023-08-20T10:39:38;5.82;;;3.63;;
62633;SDS011;48704;50.534;6.442;2023-08-20T10:45:08;5.45;;;3.58;;
62633;SDS011;48704;50.534;6.442;2023-08-20T10:47:41;4.78;;;3.22;;
62633;SDS011;48704;50.534;6.442;2023-08-20T10:50:07;6.18;;;3.80;;
62633;SDS011;48704;50.534;6.442;2023-08-20T10:52:33;5.63;;;3.70;;
62633;SDS011;48704;50.534;6.442;2023-08-20T10:55:03;4.75;;;3.65;;
62633;SDS011;48704;50.534;6.442;2023-08-20T10:57:33;6.70;;;4.10;;
62633;SDS011;48704;50.534;6.442;2023-08-20T10:59:59;5.60;;;3.80;;
62633;SDS011;48704;50.534;6.442;2023-08-20T11:02:31;5.38;;;4.03;;
62633;SDS011;48704;50.534;6.442;2023-08-20T11:04:57;4.75;;;3.75;;
62633;SDS011;48704;50.534;6.442;2023-08-20T11:07:23;5.72;;;4.15;;
62633;SDS011;48704;50.534;6.442;2023-08-20T11:09:50;5.47;;;4.20;;
62633;SDS011;48704;50.534;6.442;2023-08-20T11:12:15;6.10;;;3.90;;
62633;SDS011;48704;50.534;6.442;2023-08-20T11:14:41;6.45;;;4.43;;
62633;SDS011;48704;50.534;6.442;2023-08-20T11:17:06;4.97;;;3.80;;
62633;SDS011;48704;50.534;6.442;2023-08-20T11:19:33;5.72;;;4.00;;
62633;SDS011;48704;50.534;6.442;2023-08-20T11:21:58;7.57;;;4.32;;
62633;SDS011;48704;50.534;6.442;2023-08-20T11:24:28;5.40;;;3.85;;
62633;SDS011;48704;50.534;6.442;2023-08-20T11:26:53;4.82;;;3.50;;
62633;SDS011;48704;50.534;6.442;2023-08-20T11:29:20;5.80;;;4.15;;
62633;SDS011;48704;50.534;6.442;2023-08-20T11:31:46;6.32;;;3.88;;
62633;SDS011;48704;50.534;6.442;2023-08-20T11:34:12;4.90;;;3.90;;
62633;SDS011;48704;50.534;6.442;2023-08-20T11:36:40;5.90;;;3.97;;
62633;SDS011;48704;50.534;6.442;2023-08-20T11:39:06;5.38;;;3.58;;
62633;SDS011;48704;50.534;6.442;2023-08-20T11:41:33;6.85;;;3.70;;
62633;SDS011;48704;50.534;6.442;2023-08-20T11:44:01;8.80;;;3.95;;
62633;SDS011;48704;50.534;6.442;2023-08-20T11:46:26;6.85;;;3.90;;
62633;SDS011;48704;50.534;6.442;2023-08-20T11:49:08;4.47;;;3.75;;
62633;SDS011;48704;50.534;6.442;2023-08-20T11:51:37;8.70;;;4.17;;
62633;SDS011;48704;50.534;6.442;2023-08-20T11:54:08;5.68;;;3.92;;
62633;SDS011;48704;50.534;6.442;2023-08-20T11:56:35;5.75;;;3.97;;
62633;SDS011;48704;50.534;6.442;2023-08-20T11:59:00;8.57;;;3.92;;
62633;SDS011;48704;50.534;6.442;2023-08-20T12:01:33;6.95;;;4.22;;
62633;SDS011;48704;50.534;6.442;2023-08-20T12:04:05;4.27;;;3.60;;
62633;SDS011;48704;50.534;6.442;2023-08-20T12:06:35;7.65;;;3.92;;
62633;SDS011;48704;50.534;6.442;2023-08-20T12:09:02;6.40;;;3.58;;
62633;SDS011;48704;50.534;6.442;2023-08-20T12:11:48;6.10;;;4.15;;
62633;SDS011;48704;50.534;6.442;2023-08-20T12:14:15;5.68;;;4.13;;
62633;SDS011;48704;50.534;6.442;2023-08-20T12:16:41;7.43;;;4.10;;
62633;SDS011;48704;50.534;6.442;2023-08-20T12:19:06;6.60;;;4.80;;
62633;SDS011;48704;50.534;6.442;2023-08-20T12:21:34;7.47;;;4.47;;
62633;SDS011;48704;50.534;6.442;2023-08-20T12:23:59;6.70;;;4.65;;
62633;SDS011;48704;50.534;6.442;2023-08-20T12:26:24;7.72;;;4.60;;
62633;SDS011;48704;50.534;6.442;2023-08-20T12:28:50;7.10;;;4.37;;
62633;SDS011;48704;50.534;6.442;2023-08-20T12:31:15;7.23;;;4.53;;
62633;SDS011;48704;50.534;6.442;2023-08-20T12:33:40;8.65;;;4.60;;
62633;SDS011;48704;50.534;6.442;2023-08-20T12:36:06;5.75;;;3.95;;
62633;SDS011;48704;50.534;6.442;2023-08-20T12:38:31;6.85;;;4.32;;
62633;SDS011;48704;50.534;6.442;2023-08-20T12:40:59;7.43;;;4.43;;
62633;SDS011;48704;50.534;6.442;2023-08-20T12:43:25;6.10;;;4.13;;
62633;SDS011;48704;50.534;6.442;2023-08-20T12:45:50;6.65;;;3.95;;
62633;SDS011;48704;50.534;6.442;2023-08-20T12:48:15;9.18;;;4.18;;
62633;SDS011;48704;50.534;6.442;2023-08-20T12:50:41;7.80;;;4.05;;
62633;SDS011;48704;50.534;6.442;2023-08-20T12:53:06;7.20;;;4.43;;
62633;SDS011;48704;50.534;6.442;2023-08-20T12:55:31;9.73;;;4.50;;
62633;SDS011;48704;50.534;6.442;2023-08-20T12:57:58;6.28;;;3.72;;
62633;SDS011;48704;50.534;6.442;2023-08-20T13:00:24;6.68;;;4.75;;
62633;SDS011;48704;50.534;6.442;2023-08-20T13:02:51;6.13;;;4.53;;
62633;SDS011;48704;50.534;6.442;2023-08-20T13:05:17;8.55;;;5.45;;
62633;SDS011;48704;50.534;6.442;2023-08-20T13:07:44;6.75;;;4.68;;
62633;SDS011;48704;50.534;6.442;2023-08-20T13:10:10;6.07;;;4.63;;
62633;SDS011;48704;50.534;6.442;2023-08-20T13:12:35;5.65;;;4.15;;
62633;SDS011;48704;50.534;6.442;2023-08-20T13:15:02;7.45;;;4.80;;
62633;SDS011;48704;50.534;6.442;2023-08-20T13:17:29;6.05;;;4.55;;
62633;SDS011;48704;50.534;6.442;2023-08-20T13:19:54;6.45;;;4.80;;
62633;SDS011;48704;50.534;6.442;2023-08-20T13:22:21;6.70;;;4.55;;
62633;SDS011;48704;50.534;6.442;2023-08-20T13:24:46;7.22;;;4.38;;
62633;SDS011;48704;50.534;6.442;2023-08-20T13:27:12;7.18;;;4.50;;
62633;SDS011;48704;50.534;6.442;2023-08-20T13:29:37;5.47;;;4.30;;
62633;SDS011;48704;50.534;6.442;2023-08-20T13:32:02;5.15;;;3.95;;
62633;SDS011;48704;50.534;6.442;2023-08-20T13:34:28;6.10;;;4.20;;
62633;SDS011;48704;50.534;6.442;2023-08-20T13:36:53;6.60;;;4.28;;
62633;SDS011;48704;50.534;6.442;2023-08-20T13:39:18;6.18;;;4.80;;
62633;SDS011;48704;50.534;6.442;2023-08-20T13:41:44;7.78;;;4.55;;
62633;SDS011;48704;50.534;6.442;2023-08-20T13:44:09;6.80;;;4.80;;
62633;SDS011;48704;50.534;6.442;2023-08-20T13:46:34;7.45;;;4.47;;
62633;SDS011;48704;50.534;6.442;2023-08-20T13:49:00;5.55;;;3.92;;
62633;SDS011;48704;50.534;6.442;2023-08-20T13:51:26;5.88;;;3.90;;
62633;SDS011;48704;50.534;6.442;2023-08-20T13:53:51;6.90;;;4.00;;
62633;SDS011;48704;50.534;6.442;2023-08-20T13:56:16;6.80;;;4.40;;
62633;SDS011;48704;50.534;6.442;2023-08-20T13:58:41;5.40;;;4.15;;
62633;SDS011;48704;50.534;6.442;2023-08-20T14:01:07;5.90;;;4.30;;
62633;SDS011;48704;50.534;6.442;2023-08-20T14:03:32;6.63;;;4.35;;
62633;SDS011;48704;50.534;6.442;2023-08-20T14:05:57;6.50;;;4.00;;
62633;SDS011;48704;50.534;6.442;2023-08-20T14:08:23;5.35;;;3.92;;
62633;SDS011;48704;50.534;6.442;2023-08-20T14:10:48;8.35;;;4.60;;
62633;SDS011;48704;50.534;6.442;2023-08-20T14:13:13;6.67;;;4.27;;
62633;SDS011;48704;50.534;6.442;2023-08-20T14:15:39;10.27;;;4.57;;
62633;SDS011;48704;50.534;6.442;2023-08-20T14:18:04;6.10;;;4.23;;
62633;SDS011;48704;50.534;6.442;2023-08-20T14:20:29;6.45;;;3.97;;
62633;SDS011;48704;50.534;6.442;2023-08-20T14:22:55;7.03;;;4.27;;
62633;SDS011;48704;50.534;6.442;2023-08-20T14:25:20;5.87;;;4.63;;
62633;SDS011;48704;50.534;6.442;2023-08-20T14:27:45;5.85;;;4.60;;
62633;SDS011;48704;50.534;6.442;2023-08-20T14:30:11;7.63;;;4.88;;
62633;SDS011;48704;50.534;6.442;2023-08-20T14:32:36;6.43;;;4.70;;
62633;SDS011;48704;50.534;6.442;2023-08-20T14:35:01;7.75;;;4.90;;
62633;SDS011;48704;50.534;6.442;2023-08-20T14:37:27;5.28;;;4.57;;
62633;SDS011;48704;50.534;6.442;2023-08-20T14:39:52;9.77;;;5.07;;
62633;SDS011;48704;50.534;6.442;2023-08-20T14:42:18;7.18;;;4.55;;
62633;SDS011;48704;50.534;6.442;2023-08-20T14:44:43;6.35;;;4.65;;
62633;SDS011;48704;50.534;6.442;2023-08-20T14:47:09;6.95;;;5.15;;
62633;SDS011;48704;50.534;6.442;2023-08-20T14:49:34;7.95;;;5.40;;
62633;SDS011;48704;50.534;6.442;2023-08-20T14:52:00;8.05;;;4.68;;
62633;SDS011;48704;50.534;6.442;2023-08-20T14:54:25;7.77;;;4.80;;